createdAt,value
2018-03-27T00:02:08.435Z,75.82
2018-03-27T00:04:38.146Z,76.05
2018-03-27T00:07:07.666Z,76.34
2018-03-27T00:09:37.365Z,75.64
2018-03-27T00:12:06.935Z,74.54
2018-03-27T00:14:36.484Z,74.78
2018-03-27T00:17:05.963Z,75.25
2018-03-27T00:19:35.696Z,74.94
2018-03-27T00:22:05.415Z,74.74
2018-03-27T00:24:43.745Z,74.77
2018-03-27T00:27:12.474Z,75.67
2018-03-27T00:30:00.139Z,75.88
2018-03-27T00:32:53.469Z,76.90
2018-03-27T00:35:47.246Z,76.79
2018-03-27T00:38:40.750Z,76.63
2018-03-27T00:44:36.385Z,77.26
2018-03-27T00:47:05.554Z,77.19
2018-03-27T00:49:34.766Z,77.26
2018-03-27T00:52:04.442Z,77.22
2018-03-27T00:54:35.939Z,76.49
2018-03-27T00:57:05.616Z,76.86
2018-03-27T00:59:36.035Z,77.04
2018-03-27T01:02:07.029Z,76.53
2018-03-27T01:04:36.832Z,76.27
2018-03-27T01:07:07.028Z,75.74
2018-03-27T01:09:37.720Z,75.49
2018-03-27T01:12:07.222Z,75.30
2018-03-27T01:14:36.796Z,75.42
2018-03-27T01:17:06.537Z,75.66
2018-03-27T01:19:36.202Z,76.21
2018-03-27T01:22:07.570Z,76.75
2018-03-27T01:24:37.438Z,76.59
2018-03-27T01:27:07.727Z,76.83
2018-03-27T01:29:37.294Z,77.67
2018-03-27T01:32:08.776Z,77.91
2018-03-27T01:34:38.260Z,78.57
2018-03-27T01:37:07.750Z,78.90
2018-03-27T01:39:37.267Z,79.12
2018-03-27T01:42:07.014Z,78.83
2018-03-27T01:44:36.549Z,79.01
2018-03-27T01:47:06.312Z,78.95
2018-03-27T01:49:35.922Z,79.42
2018-03-27T01:52:07.110Z,79.69
2018-03-27T01:54:37.534Z,79.20
2018-03-27T01:57:08.458Z,78.95
2018-03-27T01:59:38.229Z,78.42
2018-03-27T02:02:08.835Z,78.35
2018-03-27T02:04:39.445Z,78.42
2018-03-27T02:07:08.952Z,78.31
2018-03-27T02:09:39.200Z,78.80
2018-03-27T02:12:14.575Z,80.27
2018-03-27T02:14:50.687Z,80.62
2018-03-27T02:17:25.670Z,81.51
2018-03-27T02:20:00.915Z,82.08
2018-03-27T02:22:32.779Z,82.40
2018-03-27T02:25:02.499Z,82.10
2018-03-27T02:27:32.095Z,81.92
2018-03-27T02:30:03.857Z,81.74
2018-03-27T02:32:33.489Z,81.86
2018-03-27T02:35:03.135Z,82.32
2018-03-27T02:37:32.885Z,82.83
2018-03-27T02:40:02.381Z,82.46
2018-03-27T02:42:32.200Z,79.17
2018-03-27T02:45:01.927Z,78.40
2018-03-27T02:47:31.509Z,79.54
2018-03-27T02:50:01.438Z,77.94
2018-03-27T02:52:31.515Z,78.77
2018-03-27T02:55:01.774Z,75.03
2018-03-27T02:57:31.402Z,74.13
2018-03-27T03:00:00.989Z,73.62
2018-03-27T03:02:30.651Z,73.78
2018-03-27T03:05:01.189Z,73.50
2018-03-27T03:07:30.724Z,73.20
2018-03-27T03:10:00.352Z,73.24
2018-03-27T03:12:29.855Z,72.89
2018-03-27T03:14:59.352Z,73.31
2018-03-27T03:17:28.957Z,73.36
2018-03-27T03:19:58.547Z,73.47
2018-03-27T03:22:28.906Z,74.50
2018-03-27T03:24:58.409Z,75.64
2018-03-27T03:27:27.899Z,77.35
2018-03-27T03:29:57.491Z,77.40
2018-03-27T03:32:27.763Z,78.26
2018-03-27T03:34:57.456Z,78.29
2018-03-27T03:37:44.133Z,78.02
2018-03-27T03:43:46.360Z,74.70
2018-03-27T03:46:35.454Z,74.87
2018-03-27T03:49:05.446Z,72.87
2018-03-27T03:51:35.056Z,72.93
2018-03-27T03:54:04.857Z,71.97
2018-03-27T03:56:36.028Z,71.03
2018-03-27T03:59:06.317Z,73.85
2018-03-27T04:01:35.996Z,76.45
2018-03-27T04:04:06.296Z,76.81
2018-03-27T04:06:35.821Z,75.02
2018-03-27T04:09:06.518Z,73.81
2018-03-27T04:11:37.199Z,74.62
2018-03-27T04:14:06.906Z,75.34
2018-03-27T04:16:36.711Z,75.90
2018-03-27T04:19:07.010Z,75.08
2018-03-27T04:21:36.561Z,74.24
2018-03-27T04:24:07.103Z,74.80
2018-03-27T04:26:37.587Z,74.53
2018-03-27T04:29:07.287Z,72.78
2018-03-27T04:31:36.821Z,72.96
2018-03-27T04:34:07.533Z,73.17
2018-03-27T04:36:37.217Z,74.64
2018-03-27T04:39:07.040Z,76.48
2018-03-27T04:41:36.867Z,77.01
2018-03-27T04:44:06.745Z,76.53
2018-03-27T04:46:37.276Z,77.88
2018-03-27T04:49:06.814Z,77.94
2018-03-27T04:51:36.678Z,78.41
2018-03-27T04:54:06.326Z,79.30
2018-03-27T04:56:36.123Z,80.28
2018-03-27T04:59:05.628Z,80.11
2018-03-27T05:01:35.176Z,79.80
2018-03-27T05:04:04.752Z,78.62
2018-03-27T05:06:34.341Z,79.77
2018-03-27T05:11:43.516Z,80.37
2018-03-27T05:14:13.262Z,80.20
2018-03-27T05:16:42.910Z,79.41
2018-03-27T05:21:46.372Z,77.52
2018-03-27T05:24:15.897Z,77.77
2018-03-27T05:26:47.053Z,78.09
2018-03-27T05:29:17.874Z,78.44
2018-03-27T05:31:48.391Z,78.10
2018-03-27T05:34:17.955Z,77.77
2018-03-27T05:36:47.467Z,78.13
2018-03-27T05:39:18.061Z,78.51
2018-03-27T05:41:48.536Z,78.67
2018-03-27T05:44:18.278Z,78.50
2018-03-27T05:46:48.648Z,78.83
2018-03-27T05:49:18.148Z,78.89
2018-03-27T05:51:47.909Z,79.50
2018-03-27T05:54:18.255Z,79.47
2018-03-27T05:56:49.443Z,79.49
2018-03-27T05:59:19.266Z,78.97
2018-03-27T06:01:49.800Z,77.82
2018-03-27T06:04:19.296Z,76.17
2018-03-27T06:06:48.801Z,75.68
2018-03-27T06:09:18.717Z,75.33
2018-03-27T06:11:48.616Z,73.37
2018-03-27T06:14:18.078Z,71.50
2018-03-27T06:16:47.856Z,67.70
2018-03-27T06:19:17.662Z,65.81
2018-03-27T06:21:47.326Z,62.92
2018-03-27T06:24:17.618Z,60.32
2018-03-27T06:26:47.070Z,57.48
2018-03-27T06:29:16.920Z,56.02
2018-03-27T06:31:46.563Z,55.26
2018-03-27T06:34:17.099Z,53.96
2018-03-27T06:36:47.880Z,52.37
2018-03-27T06:39:17.517Z,50.92
2018-03-27T06:41:47.111Z,50.38
2018-03-27T06:44:16.936Z,49.58
2018-03-27T06:46:46.757Z,48.20
2018-03-27T06:49:17.091Z,47.93
2018-03-27T06:51:47.557Z,47.63
2018-03-27T06:54:17.303Z,46.98
2018-03-27T06:56:47.974Z,48.04
2018-03-27T06:59:18.773Z,47.04
2018-03-27T07:01:48.485Z,43.28
2018-03-27T07:04:18.197Z,44.86
2018-03-27T07:06:47.758Z,44.11
2018-03-27T07:09:18.504Z,44.04
2018-03-27T07:11:48.111Z,43.07
2018-03-27T07:14:17.735Z,42.93
2018-03-27T07:16:47.248Z,41.80
2018-03-27T07:19:17.985Z,38.43
2018-03-27T07:21:48.724Z,39.92
2018-03-27T07:24:18.439Z,41.03
2018-03-27T07:26:48.993Z,40.63
2018-03-27T07:29:18.675Z,40.40
2018-03-27T07:31:48.280Z,38.31
2018-03-27T07:34:18.075Z,38.73
2018-03-27T07:36:48.018Z,37.86
2018-03-27T07:39:18.344Z,38.49
2018-03-27T07:41:47.918Z,37.85
2018-03-27T07:44:18.074Z,37.19
2018-03-27T07:46:47.775Z,37.08
2018-03-27T07:49:17.280Z,35.71
2018-03-27T07:51:47.011Z,34.93
2018-03-27T07:54:16.763Z,37.42
2018-03-27T07:56:46.524Z,35.30
2018-03-27T07:59:26.783Z,36.27
2018-03-27T08:01:56.793Z,36.14
2018-03-27T08:04:26.343Z,34.70
2018-03-27T08:06:56.950Z,31.88
2018-03-27T08:09:27.059Z,33.00
2018-03-27T08:11:56.879Z,34.23
2018-03-27T08:14:28.966Z,32.55
2018-03-27T08:16:59.818Z,31.90
2018-03-27T08:19:30.239Z,31.64
2018-03-27T08:22:00.364Z,29.95
2018-03-27T08:24:31.022Z,29.67
2018-03-27T08:27:01.804Z,33.84
2018-03-27T08:29:32.246Z,35.38
2018-03-27T08:32:02.505Z,37.22
2018-03-27T08:34:32.004Z,37.94
2018-03-27T08:37:02.329Z,34.94
2018-03-27T08:39:33.084Z,33.43
2018-03-27T08:42:03.650Z,34.24
2018-03-27T08:44:33.520Z,33.05
2018-03-27T08:47:03.878Z,32.97
2018-03-27T08:56:18.802Z,24.98
2018-03-27T08:59:42.240Z,25.62
2018-03-27T09:02:16.887Z,23.30
2018-03-27T09:04:47.590Z,23.07
2018-03-27T09:07:17.102Z,23.03
2018-03-27T09:09:46.907Z,21.89
2018-03-27T09:12:17.485Z,21.86
2018-03-27T09:14:47.489Z,21.37
2018-03-27T09:17:18.293Z,22.77
2018-03-27T09:19:48.123Z,20.83
2018-03-27T09:22:18.207Z,22.34
2018-03-27T09:24:48.917Z,21.95
2018-03-27T09:27:19.136Z,22.13
2018-03-27T09:29:49.686Z,22.08
2018-03-27T09:32:19.991Z,20.74
2018-03-27T09:34:49.719Z,19.46
2018-03-27T09:37:20.233Z,17.73
2018-03-27T09:39:50.107Z,20.12
2018-03-27T09:42:19.599Z,21.11
2018-03-27T09:44:49.704Z,21.61
2018-03-27T09:47:48.361Z,22.83
2018-03-27T09:53:50.512Z,25.43
2018-03-27T09:56:53.197Z,25.72
2018-03-27T09:59:27.409Z,24.86
2018-03-27T10:02:01.132Z,25.66
2018-03-27T10:04:30.724Z,25.91
2018-03-27T10:07:00.238Z,26.19
2018-03-27T10:09:29.766Z,25.42
2018-03-27T10:11:59.506Z,25.93
2018-03-27T10:14:29.172Z,26.13
2018-03-27T10:16:58.973Z,25.77
2018-03-27T10:19:29.285Z,26.08
2018-03-27T10:21:59.007Z,26.39
2018-03-27T10:24:29.258Z,26.50
2018-03-27T10:26:59.790Z,25.20
2018-03-27T10:29:29.390Z,26.65
2018-03-27T10:31:59.955Z,26.28
2018-03-27T10:34:30.264Z,26.42
2018-03-27T10:36:59.959Z,27.41
2018-03-27T10:39:36.967Z,26.86
2018-03-27T10:42:06.484Z,26.80
2018-03-27T10:44:37.444Z,25.75
2018-03-27T10:47:07.338Z,24.19
2018-03-27T10:49:38.470Z,26.27
2018-03-27T10:52:08.528Z,25.61
2018-03-27T10:54:38.881Z,25.04
2018-03-27T10:57:08.677Z,22.92
2018-03-27T10:59:38.410Z,22.01
2018-03-27T11:02:08.015Z,21.59
2018-03-27T11:04:37.522Z,20.67
2018-03-27T11:07:07.133Z,20.07
2018-03-27T11:09:36.685Z,20.58
2018-03-27T11:12:07.153Z,21.70
2018-03-27T11:14:36.983Z,21.34
2018-03-27T11:17:06.473Z,22.00
2018-03-27T11:19:36.077Z,22.87
2018-03-27T11:22:05.970Z,22.66
2018-03-27T11:27:45.575Z,22.49
2018-03-27T11:30:33.820Z,21.94
2018-03-27T11:36:46.185Z,22.83
2018-03-27T11:39:17.143Z,23.53
2018-03-27T11:41:46.613Z,25.24
2018-03-27T11:44:16.378Z,23.81
2018-03-27T11:46:46.065Z,25.65
2018-03-27T11:49:15.575Z,23.25
2018-03-27T11:51:46.551Z,23.40
2018-03-27T11:54:16.372Z,22.99
2018-03-27T11:56:46.049Z,20.60
2018-03-27T11:59:15.786Z,21.28
2018-03-27T12:01:45.491Z,19.85
2018-03-27T12:04:15.625Z,21.65
2018-03-27T12:06:45.080Z,24.05
2018-03-27T12:09:15.519Z,22.78
2018-03-27T12:11:45.138Z,23.43
2018-03-27T12:14:14.638Z,21.82
2018-03-27T12:16:44.287Z,20.56
2018-03-27T12:19:16.445Z,20.80
2018-03-27T12:21:45.982Z,19.46
2018-03-27T12:24:15.515Z,19.10
2018-03-27T12:26:45.914Z,20.66
2018-03-27T12:29:15.490Z,22.38
2018-03-27T12:31:45.069Z,21.16
2018-03-27T12:34:15.473Z,22.54
2018-03-27T12:36:45.814Z,23.69
2018-03-27T12:39:16.202Z,24.97
2018-03-27T12:41:45.958Z,25.46
2018-03-27T12:44:15.460Z,25.84
2018-03-27T12:46:45.734Z,25.56
2018-03-27T12:49:22.149Z,23.67
2018-03-27T12:51:55.990Z,23.66
2018-03-27T12:54:26.597Z,23.46
2018-03-27T12:56:57.022Z,22.59
2018-03-27T12:59:26.711Z,21.21
2018-03-27T13:01:56.487Z,21.52
2018-03-27T13:04:26.042Z,22.00
2018-03-27T13:06:56.393Z,21.46
2018-03-27T13:09:27.609Z,20.63
2018-03-27T13:11:59.182Z,21.03
2018-03-27T13:14:28.940Z,20.03
2018-03-27T13:17:00.036Z,19.89
2018-03-27T13:19:29.785Z,20.98
2018-03-27T13:22:00.616Z,21.87
2018-03-27T13:24:30.199Z,20.97
2018-03-27T13:27:00.439Z,23.67
2018-03-27T13:29:30.534Z,23.88
2018-03-27T13:32:00.485Z,24.28
2018-03-27T13:34:29.999Z,23.86
2018-03-27T13:36:59.703Z,23.98
2018-03-27T13:39:30.435Z,23.14
2018-03-27T13:41:59.893Z,23.71
2018-03-27T13:44:30.330Z,23.72
2018-03-27T13:46:59.999Z,24.47
2018-03-27T13:49:39.788Z,24.67
2018-03-27T13:52:43.082Z,25.34
2018-03-27T13:55:23.691Z,26.22
2018-03-27T13:58:35.369Z,25.95
2018-03-27T14:01:35.605Z,26.23
2018-03-27T14:04:13.006Z,25.96
2018-03-27T14:06:42.556Z,25.87
2018-03-27T14:09:13.023Z,26.44
2018-03-27T14:11:42.852Z,27.75
2018-03-27T14:14:12.865Z,27.29
2018-03-27T14:16:44.129Z,28.31
2018-03-27T14:19:14.770Z,28.00
2018-03-27T14:21:49.877Z,27.99
2018-03-27T14:24:19.458Z,28.78
2018-03-27T14:26:48.999Z,27.51
2018-03-27T14:29:18.494Z,27.97
2018-03-27T14:31:48.867Z,28.83
2018-03-27T14:34:19.346Z,28.41
2018-03-27T14:36:49.142Z,29.35
2018-03-27T14:39:18.718Z,28.54
2018-03-27T14:41:49.201Z,28.71
2018-03-27T14:44:18.959Z,28.40
2018-03-27T14:46:48.664Z,27.86
2018-03-27T14:49:18.884Z,28.48
2018-03-27T14:51:49.416Z,28.25
2018-03-27T14:54:19.262Z,28.12
2018-03-27T14:56:48.990Z,28.36
2018-03-27T14:59:18.482Z,28.15
2018-03-27T15:01:48.218Z,28.06
2018-03-27T15:04:18.038Z,28.20
2018-03-27T15:06:48.043Z,27.59
2018-03-27T15:09:17.969Z,28.36
2018-03-27T15:11:47.493Z,27.54
2018-03-27T15:14:18.245Z,27.85
2018-03-27T15:16:51.585Z,28.29
2018-03-27T15:19:21.303Z,29.50
2018-03-27T15:21:54.135Z,29.69
2018-03-27T15:24:24.079Z,30.07
2018-03-27T15:26:53.988Z,29.52
2018-03-27T15:29:23.734Z,30.92
2018-03-27T15:31:53.552Z,30.18
2018-03-27T15:34:23.480Z,29.53
2018-03-27T15:36:53.984Z,29.99
2018-03-27T15:39:24.640Z,29.71
2018-03-27T15:41:54.563Z,29.98
2018-03-27T15:44:24.160Z,30.71
2018-03-27T15:46:55.664Z,30.91
2018-03-27T15:49:27.659Z,29.95
2018-03-27T15:51:58.044Z,30.49
2018-03-27T15:54:28.354Z,30.26
2018-03-27T15:56:57.934Z,30.22
2018-03-27T15:59:28.379Z,31.01
2018-03-27T16:01:58.264Z,31.09
2018-03-27T16:04:28.240Z,30.92
2018-03-27T16:07:00.529Z,31.67
2018-03-27T16:09:30.331Z,30.93
2018-03-27T16:12:01.527Z,31.37
2018-03-27T16:14:31.465Z,31.74
2018-03-27T16:17:02.071Z,31.81
2018-03-27T16:19:33.214Z,32.52
2018-03-27T16:22:05.411Z,32.21
2018-03-27T16:24:38.093Z,32.32
2018-03-27T16:27:08.453Z,32.67
2018-03-27T16:29:40.410Z,32.84
2018-03-27T16:32:11.539Z,32.73
2018-03-27T16:34:41.804Z,33.83
2018-03-27T16:37:12.276Z,34.47
2018-03-27T16:39:43.016Z,34.84
2018-03-27T16:42:14.061Z,35.12
2018-03-27T16:44:44.116Z,36.31
2018-03-27T16:47:14.475Z,37.05
2018-03-27T16:49:44.765Z,38.42
2018-03-27T16:52:15.250Z,39.43
2018-03-27T16:55:00.208Z,39.24
2018-03-27T16:57:47.585Z,39.36
2018-03-27T17:03:35.443Z,37.76
2018-03-27T17:06:24.635Z,38.29
2018-03-27T17:08:58.323Z,38.14
2018-03-27T17:11:28.981Z,37.58
2018-03-27T17:14:00.424Z,38.09
2018-03-27T17:16:31.799Z,38.10
2018-03-27T17:19:03.003Z,38.70
2018-03-27T17:21:33.200Z,38.26
2018-03-27T17:24:04.765Z,38.32
2018-03-27T17:26:35.507Z,39.07
2018-03-27T17:29:06.105Z,39.10
2018-03-27T17:31:36.517Z,40.05
2018-03-27T17:34:07.450Z,40.75
2018-03-27T17:36:38.831Z,41.44
2018-03-27T17:39:09.349Z,42.08
2018-03-27T17:41:39.632Z,42.30
2018-03-27T17:44:10.272Z,42.60
2018-03-27T17:46:42.175Z,42.52
2018-03-27T17:49:13.312Z,42.92
2018-03-27T17:51:45.107Z,42.76
2018-03-27T17:54:15.355Z,43.84
2018-03-27T17:56:46.161Z,44.98
2018-03-27T17:59:16.705Z,45.27
2018-03-27T18:01:47.491Z,45.97
2018-03-27T18:04:18.967Z,47.08
2018-03-27T18:06:56.174Z,47.66
2018-03-27T18:09:26.742Z,48.59
2018-03-27T18:11:57.283Z,49.55
2018-03-27T18:14:27.413Z,49.68
2018-03-27T18:16:57.970Z,49.68
2018-03-27T18:19:28.541Z,49.87
2018-03-27T18:21:59.385Z,49.74
2018-03-27T18:24:30.809Z,49.44
2018-03-27T18:27:01.117Z,50.00
2018-03-27T18:29:32.948Z,50.47
2018-03-27T18:32:04.072Z,50.25
2018-03-27T18:34:37.382Z,49.92
2018-03-27T18:37:08.849Z,49.68
2018-03-27T18:39:46.193Z,49.16
2018-03-27T18:42:16.781Z,48.82
2018-03-27T18:44:47.331Z,48.17
2018-03-27T18:47:17.558Z,48.20
2018-03-27T18:49:47.935Z,49.23
2018-03-27T18:52:18.392Z,50.14
2018-03-27T18:54:48.417Z,50.33
2018-03-27T18:57:19.459Z,50.59
2018-03-27T18:59:51.384Z,50.82
2018-03-27T19:02:22.378Z,50.86
2018-03-27T19:04:52.955Z,49.88
2018-03-27T19:07:23.194Z,49.50
2018-03-27T19:09:54.227Z,49.19
2018-03-27T19:12:25.482Z,49.27
2018-03-27T19:14:55.588Z,49.83
2018-03-27T19:17:26.549Z,50.46
2018-03-27T19:19:57.728Z,50.67
2018-03-27T19:22:28.508Z,49.80
2018-03-27T19:25:00.476Z,49.26
2018-03-27T19:27:30.511Z,48.98
2018-03-27T19:30:00.777Z,49.32
2018-03-27T19:32:32.305Z,49.43
2018-03-27T19:35:02.393Z,49.09
2018-03-27T19:37:32.442Z,49.03
2018-03-27T19:40:02.834Z,48.83
2018-03-27T19:42:33.066Z,49.20
2018-03-27T19:45:03.319Z,49.22
2018-03-27T19:47:33.332Z,48.56
2018-03-27T19:50:04.063Z,48.46
2018-03-27T19:52:34.250Z,48.43
2018-03-27T19:55:05.233Z,48.15
2018-03-27T19:57:35.563Z,47.77
2018-03-27T20:00:06.346Z,47.38
2018-03-27T20:02:37.945Z,47.43
2018-03-27T20:05:10.480Z,46.83
2018-03-27T20:07:42.743Z,46.69
2018-03-27T20:10:13.619Z,46.31
2018-03-27T20:12:43.834Z,46.91
2018-03-27T20:15:14.690Z,46.67
2018-03-27T20:17:44.824Z,47.02
2018-03-27T20:20:15.016Z,47.27
2018-03-27T20:22:45.327Z,47.19
2018-03-27T20:25:16.567Z,47.23
2018-03-27T20:27:46.791Z,46.96
2018-03-27T20:30:17.165Z,47.59
2018-03-27T20:32:47.235Z,48.08
2018-03-27T20:35:18.095Z,48.27
2018-03-27T20:37:48.407Z,48.53
2018-03-27T20:40:26.072Z,48.90
2018-03-27T20:42:58.034Z,49.30
2018-03-27T20:45:29.314Z,49.54
2018-03-27T20:47:59.419Z,49.83
2018-03-27T20:50:30.722Z,49.92
2018-03-27T20:53:01.397Z,50.17
2018-03-27T20:55:33.074Z,50.43
2018-03-27T20:58:03.284Z,50.47
2018-03-27T21:00:34.283Z,50.42
2018-03-27T21:03:06.516Z,50.37
2018-03-27T21:05:36.660Z,50.57
2018-03-27T21:08:06.682Z,50.60
2018-03-27T21:10:36.669Z,50.65
2018-03-27T21:13:07.587Z,50.50
2018-03-27T21:15:39.451Z,50.57
2018-03-27T21:18:11.210Z,50.78
2018-03-27T21:20:41.930Z,50.81
2018-03-27T21:23:11.615Z,50.91
2018-03-27T21:25:41.438Z,50.90
2018-03-27T21:28:11.362Z,51.28
2018-03-27T21:30:41.167Z,51.65
2018-03-27T21:33:10.864Z,52.34
2018-03-27T21:35:40.665Z,52.41
2018-03-27T21:38:10.715Z,52.44
2018-03-27T21:40:41.284Z,52.53
2018-03-27T21:43:10.908Z,52.92
2018-03-27T21:45:40.356Z,55.54
2018-03-27T21:48:09.797Z,57.63
2018-03-27T21:50:39.494Z,59.14
2018-03-27T21:53:09.092Z,58.98
2018-03-27T21:55:38.584Z,59.59
2018-03-27T21:58:08.969Z,60.54
2018-03-27T22:00:38.811Z,61.50
2018-03-27T22:03:09.511Z,61.34
2018-03-27T22:05:39.022Z,61.52
2018-03-27T22:08:08.761Z,61.94
2018-03-27T22:10:38.246Z,62.71
2018-03-27T22:13:07.731Z,63.97
2018-03-27T22:15:38.607Z,64.35
2018-03-27T22:18:08.737Z,64.42
2018-03-27T22:20:38.633Z,65.97
2018-03-27T22:23:08.113Z,66.96
2018-03-27T22:25:38.540Z,68.06
2018-03-27T22:28:09.080Z,69.46
2018-03-27T22:30:38.633Z,70.11
2018-03-27T22:33:09.148Z,70.65
2018-03-27T22:35:39.635Z,71.24
2018-03-27T22:38:09.101Z,71.92
2018-03-27T22:40:38.748Z,72.34
2018-03-27T22:43:09.269Z,72.47
2018-03-27T22:45:39.532Z,73.39
2018-03-27T22:48:09.572Z,73.23
2018-03-27T22:50:39.034Z,73.19
2018-03-27T22:53:09.578Z,73.17
2018-03-27T22:55:39.718Z,72.97
2018-03-27T22:58:09.248Z,72.74
2018-03-27T23:00:38.806Z,71.78
2018-03-27T23:03:08.323Z,72.49
2018-03-27T23:05:38.638Z,72.79
2018-03-27T23:08:08.171Z,72.98
2018-03-27T23:10:37.697Z,73.62
2018-03-27T23:13:08.017Z,74.15
2018-03-27T23:15:37.956Z,74.13
2018-03-27T23:18:10.155Z,74.15
2018-03-27T23:20:40.387Z,74.21
2018-03-27T23:23:11.650Z,74.69
2018-03-27T23:25:41.238Z,75.79
2018-03-27T23:28:10.867Z,76.56
2018-03-27T23:30:40.578Z,76.46
2018-03-27T23:33:10.699Z,77.32
2018-03-27T23:35:43.987Z,77.29
2018-03-27T23:38:13.503Z,77.69
2018-03-27T23:40:43.312Z,78.13
2018-03-27T23:43:12.754Z,78.37
2018-03-27T23:45:43.112Z,78.35
2018-03-27T23:48:15.743Z,78.72
2018-03-27T23:50:46.295Z,78.98
2018-03-27T23:53:16.692Z,79.10
2018-03-27T23:55:46.152Z,79.56
2018-03-27T23:58:15.800Z,79.53
